createdAt,value
2019-06-13T00:00:21.665Z,18.3
2019-06-13T00:01:10.211Z,18.27
2019-06-13T00:02:06.648Z,18.23
2019-06-13T00:03:09.189Z,18.3
2019-06-13T00:04:09.131Z,18.27
2019-06-13T00:05:06.730Z,18.27
2019-06-13T00:06:08.933Z,18.23
2019-06-13T00:07:09.286Z,18.18
2019-06-13T00:08:08.983Z,18.17
2019-06-13T00:09:06.809Z,18.29
2019-06-13T00:10:09.206Z,18.14
2019-06-13T00:11:09.370Z,18.1
2019-06-13T00:12:08.841Z,18.08
2019-06-13T00:13:09.664Z,17.97
2019-06-13T00:14:09.096Z,17.93
2019-06-13T00:15:08.837Z,17.95
2019-06-13T00:16:21.835Z,18.14
2019-06-13T00:17:09.153Z,18.08
2019-06-13T00:18:08.958Z,18.05
2019-06-13T00:19:09.548Z,18.11
2019-06-13T00:21:08.965Z,18.05
2019-06-13T00:22:09.472Z,18.08
2019-06-13T00:23:09.194Z,18.11
2019-06-13T00:24:09.019Z,18.14
2019-06-13T00:25:09.549Z,18.05
2019-06-13T00:26:09.035Z,17.99
2019-06-13T00:27:09.619Z,18.05
2019-06-13T00:28:08.904Z,18.1
2019-06-13T00:29:08.752Z,18.14
2019-06-13T00:30:08.674Z,18.11
2019-06-13T00:31:09.599Z,18.1
2019-06-13T00:32:22.178Z,18.25
2019-06-13T00:33:08.959Z,18.25
2019-06-13T00:34:09.528Z,18.2
2019-06-13T00:35:09.142Z,18.08
2019-06-13T00:36:13.439Z,18.1
2019-06-13T00:37:09.384Z,18.17
2019-06-13T00:38:09.541Z,18.12
2019-06-13T00:39:09.054Z,18.14
2019-06-13T00:40:08.675Z,18.11
2019-06-13T00:41:09.723Z,18.12
2019-06-13T00:42:09.216Z,18.12
2019-06-13T00:43:08.984Z,18.12
2019-06-13T00:44:22.299Z,18.14
2019-06-13T00:45:09.106Z,18.08
2019-06-13T00:46:08.736Z,18.08
2019-06-13T00:47:22.475Z,17.93
2019-06-13T00:48:09.694Z,17.93
2019-06-13T00:49:09.504Z,17.82
2019-06-13T00:50:08.811Z,17.96
2019-06-13T00:52:08.758Z,17.9
2019-06-13T00:53:09.474Z,17.95
2019-06-13T00:54:09.446Z,17.97
2019-06-13T00:55:08.848Z,17.81
2019-06-13T00:56:09.564Z,17.86
2019-06-13T00:57:09.182Z,17.79
2019-06-13T00:58:22.628Z,17.74
2019-06-13T00:59:22.651Z,17.7
2019-06-13T01:00:19.202Z,17.75
2019-06-13T01:01:10.212Z,17.68
2019-06-13T01:02:09.655Z,17.64
2019-06-13T01:03:09.618Z,17.66
2019-06-13T01:04:09.299Z,17.7
2019-06-13T01:05:10.189Z,17.63
2019-06-13T01:06:29.893Z,17.56
2019-06-13T01:07:10.845Z,17.56
2019-06-13T01:08:22.617Z,17.51
2019-06-13T01:09:09.481Z,17.43
2019-06-13T01:10:11.569Z,17.49
2019-06-13T01:11:09.901Z,17.49
2019-06-13T01:12:08.802Z,17.41
2019-06-13T01:13:09.655Z,17.49
2019-06-13T01:14:23.002Z,17.46
2019-06-13T01:15:09.440Z,17.43
2019-06-13T01:17:09.159Z,17.37
2019-06-13T01:19:23.118Z,17.46
2019-06-13T01:20:10.482Z,17.59
2019-06-13T01:21:11.523Z,17.56
2019-06-13T01:22:09.521Z,17.55
2019-06-13T01:23:09.799Z,17.56
2019-06-13T01:24:10.975Z,17.59
2019-06-13T01:25:09.748Z,17.52
2019-06-13T01:26:11.193Z,17.41
2019-06-13T01:27:09.661Z,17.51
2019-06-13T01:28:11.241Z,17.49
2019-06-13T01:29:09.537Z,17.55
2019-06-13T01:30:11.339Z,17.52
2019-06-13T01:31:11.864Z,17.56
2019-06-13T01:32:23.418Z,17.48
2019-06-13T01:33:11.497Z,17.49
2019-06-13T01:34:11.663Z,17.58
2019-06-13T01:35:23.488Z,17.52
2019-06-13T01:36:11.762Z,17.46
2019-06-13T01:37:09.573Z,17.58
2019-06-13T01:38:09.098Z,17.58
2019-06-13T01:39:11.702Z,17.64
2019-06-13T01:40:11.767Z,17.7
2019-06-13T01:41:09.651Z,17.7
2019-06-13T01:43:11.770Z,17.55
2019-06-13T01:44:11.092Z,17.62
2019-06-13T01:45:09.709Z,17.71
2019-06-13T01:46:09.698Z,17.58
2019-06-13T01:47:11.494Z,17.54
2019-06-13T01:48:29.765Z,17.58
2019-06-13T01:49:11.394Z,17.59
2019-06-13T01:50:11.641Z,17.63
2019-06-13T01:51:23.858Z,17.58
2019-06-13T01:52:11.859Z,17.55
2019-06-13T01:53:11.366Z,17.52
2019-06-13T01:54:11.346Z,17.62
2019-06-13T01:55:11.817Z,17.58
2019-06-13T01:56:11.961Z,17.52
2019-06-13T01:57:11.333Z,17.59
2019-06-13T01:58:11.470Z,17.58
2019-06-13T01:59:11.185Z,17.59
2019-06-13T02:01:11.857Z,17.51
2019-06-13T02:02:11.865Z,17.48
2019-06-13T02:03:24.138Z,17.49
2019-06-13T02:04:11.203Z,17.54
2019-06-13T02:05:11.577Z,17.41
2019-06-13T02:06:11.093Z,17.4
2019-06-13T02:07:24.230Z,17.34
2019-06-13T02:08:11.878Z,17.56
2019-06-13T02:10:11.931Z,17.49
2019-06-13T02:11:11.325Z,17.54
2019-06-13T02:12:12.321Z,17.54
2019-06-13T02:13:11.267Z,17.48
2019-06-13T02:14:12.200Z,17.58
2019-06-13T02:15:11.686Z,17.58
2019-06-13T02:16:11.618Z,17.56
2019-06-13T02:17:24.465Z,17.56
2019-06-13T02:18:11.756Z,17.63
2019-06-13T02:19:24.509Z,17.55
2019-06-13T02:20:11.526Z,17.55
2019-06-13T02:21:11.855Z,17.63
2019-06-13T02:22:24.579Z,17.68
2019-06-13T02:23:11.708Z,17.58
2019-06-13T02:24:11.156Z,17.71
2019-06-13T02:25:12.186Z,17.64
2019-06-13T02:26:11.551Z,17.7
2019-06-13T02:27:11.312Z,17.68
2019-06-13T02:28:11.466Z,17.56
2019-06-13T02:29:24.758Z,17.66
2019-06-13T02:30:24.775Z,17.64
2019-06-13T02:31:13.381Z,17.68
2019-06-13T02:32:31.482Z,17.68
2019-06-13T02:33:13.962Z,17.64
2019-06-13T02:34:13.899Z,17.66
2019-06-13T02:35:13.715Z,17.66
2019-06-13T02:36:13.011Z,17.68
2019-06-13T02:37:43.906Z,17.77
2019-06-13T02:38:13.060Z,17.64
2019-06-13T02:39:13.581Z,17.58
2019-06-13T02:40:13.592Z,17.7
2019-06-13T02:41:13.137Z,17.7
2019-06-13T02:42:12.577Z,17.62
2019-06-13T02:43:13.908Z,17.59
2019-06-13T02:44:11.317Z,17.56
2019-06-13T02:45:13.104Z,17.48
2019-06-13T02:46:13.706Z,17.54
2019-06-13T02:47:12.177Z,17.56
2019-06-13T02:48:13.255Z,17.54
2019-06-13T02:49:12.923Z,17.64
2019-06-13T02:50:12.848Z,17.56
2019-06-13T02:51:13.446Z,17.48
2019-06-13T02:52:13.855Z,17.59
2019-06-13T02:53:12.526Z,17.56
2019-06-13T02:54:25.320Z,17.52
2019-06-13T02:55:13.850Z,17.59
2019-06-13T02:56:21.478Z,17.52
2019-06-13T02:57:11.437Z,17.54
2019-06-13T02:58:11.724Z,17.49
2019-06-13T02:59:12.317Z,17.48
2019-06-13T03:00:19.671Z,17.41
2019-06-13T03:01:12.116Z,17.43
2019-06-13T03:02:12.416Z,17.38
2019-06-13T03:03:11.721Z,17.33
2019-06-13T03:04:12.062Z,17.43
2019-06-13T03:05:12.746Z,17.36
2019-06-13T03:07:12.684Z,17.4
2019-06-13T03:08:25.642Z,17.33
2019-06-13T03:09:12.948Z,17.4
2019-06-13T03:10:25.690Z,17.4
2019-06-13T03:11:12.457Z,17.4
2019-06-13T03:12:12.011Z,17.48
2019-06-13T03:13:11.860Z,17.49
2019-06-13T03:14:13.900Z,17.38
2019-06-13T03:15:12.383Z,17.4
2019-06-13T03:16:14.205Z,17.41
2019-06-13T03:17:12.241Z,17.46
2019-06-13T03:18:13.984Z,17.44
2019-06-13T03:19:13.950Z,17.41
2019-06-13T03:20:12.762Z,17.41
2019-06-13T03:21:29.092Z,17.54
2019-06-13T03:22:25.967Z,17.55
2019-06-13T03:23:12.539Z,17.52
2019-06-13T03:24:12.300Z,17.51
2019-06-13T03:25:13.834Z,17.56
2019-06-13T03:26:26.058Z,17.63
2019-06-13T03:27:12.334Z,17.56
2019-06-13T03:28:12.639Z,17.52
2019-06-13T03:29:12.640Z,17.54
2019-06-13T03:30:36.608Z,17.62
2019-06-13T03:31:14.404Z,17.51
2019-06-13T03:32:14.342Z,17.62
2019-06-13T03:33:13.978Z,17.59
2019-06-13T03:34:20.651Z,17.64
2019-06-13T03:35:13.818Z,17.68
2019-06-13T03:36:14.327Z,17.64
2019-06-13T03:37:12.583Z,17.62
2019-06-13T03:38:13.906Z,17.64
2019-06-13T03:39:14.732Z,17.75
2019-06-13T03:40:29.101Z,17.82
2019-06-13T03:41:14.282Z,17.78
2019-06-13T03:42:26.431Z,17.79
2019-06-13T03:43:13.912Z,17.82
2019-06-13T03:44:14.377Z,17.87
2019-06-13T03:45:14.437Z,17.97
2019-06-13T03:46:12.597Z,18.02
2019-06-13T03:47:14.270Z,18.14
2019-06-13T03:48:14.589Z,18.14
2019-06-13T03:49:14.511Z,18.11
2019-06-13T03:51:13.074Z,18.17
2019-06-13T03:52:14.093Z,18.27
2019-06-13T03:53:13.824Z,18.27
2019-06-13T03:54:14.490Z,18.23
2019-06-13T03:55:13.996Z,18.44
2019-06-13T03:57:29.449Z,18.45
2019-06-13T03:58:14.248Z,18.51
2019-06-13T03:59:13.983Z,18.62
2019-06-13T04:00:18.781Z,18.75
2019-06-13T04:01:23.827Z,18.73
2019-06-13T04:02:14.008Z,18.91
2019-06-13T04:03:15.113Z,18.94
2019-06-13T04:04:14.125Z,18.88
2019-06-13T04:05:14.804Z,18.98
2019-06-13T04:06:14.738Z,19
2019-06-13T04:07:13.907Z,19.19
2019-06-13T04:08:29.512Z,19.14
2019-06-13T04:09:14.648Z,19.32
2019-06-13T04:10:14.154Z,19.63
2019-06-13T04:11:13.948Z,20.17
2019-06-13T04:12:14.348Z,20.89
2019-06-13T04:13:14.172Z,21.49
2019-06-13T04:14:15.223Z,22.24
2019-06-13T04:15:14.799Z,22.73
2019-06-13T04:16:15.024Z,23.01
2019-06-13T04:17:29.116Z,23.16
2019-06-13T04:18:14.485Z,23.2
2019-06-13T04:19:14.592Z,23.72
2019-06-13T04:20:29.187Z,24.13
2019-06-13T04:21:14.218Z,24.46
2019-06-13T04:23:14.540Z,25.13
2019-06-13T04:24:13.916Z,25.39
2019-06-13T04:25:14.911Z,25.72
2019-06-13T04:26:14.711Z,26.18
2019-06-13T04:27:13.695Z,26.5
2019-06-13T04:28:13.951Z,26.97
2019-06-13T04:29:29.273Z,27.39
2019-06-13T04:30:49.795Z,26.94
2019-06-13T04:31:14.364Z,26.87
2019-06-13T04:32:29.636Z,27.31
2019-06-13T04:34:14.562Z,27.4
2019-06-13T04:35:15.012Z,27.99
2019-06-13T04:37:14.592Z,28.54
2019-06-13T04:39:15.450Z,28.44
2019-06-13T04:40:14.709Z,28.06
2019-06-13T04:41:15.028Z,28.17
2019-06-13T04:42:14.559Z,28.73
2019-06-13T04:43:15.125Z,29.15
2019-06-13T04:44:14.488Z,29.48
2019-06-13T04:45:29.556Z,30.01
2019-06-13T04:46:14.707Z,30.26
2019-06-13T04:47:14.957Z,29.82
2019-06-13T04:48:14.534Z,29.55
2019-06-13T04:49:15.001Z,29.89
2019-06-13T04:50:15.317Z,29.39
2019-06-13T04:51:14.387Z,28.61
2019-06-13T04:52:14.431Z,27.96
2019-06-13T04:53:14.892Z,27.28
2019-06-13T04:54:14.757Z,26.85
2019-06-13T04:55:14.181Z,26.57
2019-06-13T04:56:15.008Z,26.17
2019-06-13T04:57:14.116Z,25.67
2019-06-13T04:58:14.853Z,25.33
2019-06-13T04:59:14.275Z,25.25
2019-06-13T05:00:33.512Z,24.99
2019-06-13T05:01:29.150Z,24.53
2019-06-13T05:02:15.284Z,24.42
2019-06-13T05:03:30.060Z,24.47
2019-06-13T05:04:15.019Z,24.31
2019-06-13T05:05:16.332Z,24.27
2019-06-13T05:07:15.404Z,23.75
2019-06-13T05:08:14.997Z,23.78
2019-06-13T05:09:14.147Z,23.55
2019-06-13T05:10:19.618Z,23.48
2019-06-13T05:11:14.251Z,23.35
2019-06-13T05:12:14.295Z,23.36
2019-06-13T05:13:15.415Z,23.02
2019-06-13T05:14:19.361Z,22.97
2019-06-13T05:16:15.224Z,22.77
2019-06-13T05:17:29.596Z,22.47
2019-06-13T05:18:29.905Z,22.43
2019-06-13T05:19:15.782Z,22.45
2019-06-13T05:21:15.923Z,22.33
2019-06-13T05:22:14.400Z,22.14
2019-06-13T05:23:14.708Z,22.02
2019-06-13T05:24:14.616Z,21.75
2019-06-13T05:25:15.168Z,21.64
2019-06-13T05:26:14.509Z,21.69
2019-06-13T05:27:14.430Z,21.71
2019-06-13T05:28:29.753Z,21.5
2019-06-13T05:29:14.574Z,21.5
2019-06-13T05:30:22.421Z,21.5
2019-06-13T05:31:29.337Z,21.53
2019-06-13T05:32:29.979Z,21.4
2019-06-13T05:33:33.485Z,21.35
2019-06-13T05:34:15.025Z,21.34
2019-06-13T05:35:14.930Z,21.32
2019-06-13T05:36:15.519Z,21.21
2019-06-13T05:37:14.804Z,21.14
2019-06-13T05:38:15.062Z,21.13
2019-06-13T05:39:23.631Z,21.16
2019-06-13T05:41:15.379Z,20.94
2019-06-13T05:42:15.168Z,20.92
2019-06-13T05:43:16.109Z,20.95
2019-06-13T05:44:14.960Z,20.84
2019-06-13T05:45:15.431Z,20.73
2019-06-13T05:46:15.157Z,20.58
2019-06-13T05:47:15.025Z,20.7
2019-06-13T05:48:15.928Z,20.82
2019-06-13T05:49:15.096Z,20.88
2019-06-13T05:50:15.134Z,20.72
2019-06-13T05:51:15.129Z,20.73
2019-06-13T05:52:15.303Z,20.77
2019-06-13T05:53:15.179Z,20.82
2019-06-13T05:54:15.225Z,20.73
2019-06-13T05:55:15.349Z,20.7
2019-06-13T05:56:15.247Z,20.74
2019-06-13T05:57:15.292Z,20.69
2019-06-13T05:58:30.349Z,20.61
2019-06-13T05:59:15.328Z,20.57
2019-06-13T06:00:30.012Z,20.59
2019-06-13T06:01:15.589Z,20.72
2019-06-13T06:02:15.401Z,20.67
2019-06-13T06:03:15.456Z,20.61
2019-06-13T06:04:33.933Z,20.57
2019-06-13T06:05:15.733Z,20.52
2019-06-13T06:06:15.492Z,20.33
2019-06-13T06:07:15.545Z,20.35
2019-06-13T06:08:15.541Z,20.43
2019-06-13T06:09:42.895Z,20.24
2019-06-13T06:10:15.603Z,20.26
2019-06-13T06:11:19.618Z,20.21
2019-06-13T06:13:15.845Z,20.2
2019-06-13T06:14:15.694Z,20.24
2019-06-13T06:15:15.717Z,20.13
2019-06-13T06:16:30.402Z,20.05
2019-06-13T06:17:15.815Z,20.1
2019-06-13T06:18:16.487Z,19.98
2019-06-13T06:19:15.809Z,20.05
2019-06-13T06:20:32.223Z,19.98
2019-06-13T06:21:19.153Z,19.96
2019-06-13T06:22:15.884Z,19.99
2019-06-13T06:24:21.467Z,19.88
2019-06-13T06:26:15.992Z,19.8
2019-06-13T06:27:16.006Z,19.84
2019-06-13T06:30:19.267Z,19.77
2019-06-13T06:31:16.105Z,19.78
2019-06-13T06:32:16.142Z,19.73
2019-06-13T06:33:16.457Z,19.81
2019-06-13T06:34:16.174Z,19.78
2019-06-13T06:35:16.206Z,19.87
2019-06-13T06:36:32.442Z,19.87
2019-06-13T06:37:16.314Z,19.83
2019-06-13T06:38:16.274Z,19.84
2019-06-13T06:39:19.406Z,19.83
2019-06-13T06:41:16.110Z,20.05
2019-06-13T06:42:16.372Z,20.16
2019-06-13T06:43:16.399Z,20.17
2019-06-13T06:45:16.449Z,20.52
2019-06-13T06:46:16.470Z,20.99
2019-06-13T06:47:31.156Z,21.24
2019-06-13T06:48:16.268Z,21.21
2019-06-13T06:49:16.539Z,21.4
2019-06-13T06:50:16.606Z,21.21
2019-06-13T06:51:16.588Z,21.07
2019-06-13T06:52:32.325Z,20.95
2019-06-13T06:53:16.652Z,20.94
2019-06-13T06:54:31.399Z,20.89
2019-06-13T06:55:16.724Z,20.94
2019-06-13T06:56:19.006Z,20.77
2019-06-13T06:57:16.747Z,20.76
2019-06-13T06:58:16.763Z,20.8
2019-06-13T07:00:19.289Z,20.74
2019-06-13T07:01:19.503Z,20.84
2019-06-13T07:02:19.479Z,20.61
2019-06-13T07:03:16.899Z,20.74
2019-06-13T07:04:21.642Z,20.88
2019-06-13T07:05:19.124Z,20.88
2019-06-13T07:06:19.426Z,20.72
2019-06-13T07:07:32.160Z,20.72
2019-06-13T07:08:19.383Z,20.7
2019-06-13T07:09:20.105Z,20.79
2019-06-13T07:10:24.744Z,20.69
2019-06-13T07:11:19.140Z,20.52
2019-06-13T07:12:19.715Z,20.55
2019-06-13T07:13:19.333Z,20.47
2019-06-13T07:14:30.308Z,20.52
2019-06-13T07:15:19.417Z,20.58
2019-06-13T07:17:20.043Z,20.33
2019-06-13T07:18:19.677Z,20.31
2019-06-13T07:19:19.673Z,20.23
2019-06-13T07:20:19.610Z,20.24
2019-06-13T07:21:19.987Z,20.21
2019-06-13T07:22:20.238Z,20.08
2019-06-13T07:23:19.768Z,20.11
2019-06-13T07:24:19.826Z,20.16
2019-06-13T07:25:19.839Z,20.2
2019-06-13T07:26:19.275Z,20.23
2019-06-13T07:27:19.717Z,20.26
2019-06-13T07:28:19.950Z,20.38
2019-06-13T07:29:19.911Z,20.33
2019-06-13T07:30:22.580Z,20.36
2019-06-13T07:31:19.493Z,20.52
2019-06-13T07:32:20.942Z,20.64
2019-06-13T07:33:19.876Z,20.69
2019-06-13T07:34:20.267Z,20.91
2019-06-13T07:35:20.368Z,21.04
2019-06-13T07:36:19.860Z,21.17
2019-06-13T07:37:20.139Z,21.44
2019-06-13T07:38:19.756Z,21.56
2019-06-13T07:39:32.431Z,21.71
2019-06-13T07:40:39.705Z,21.68
2019-06-13T07:41:19.152Z,21.68
2019-06-13T07:42:19.962Z,21.98
2019-06-13T07:43:20.218Z,22.3
2019-06-13T07:44:22.280Z,22.52
2019-06-13T07:45:19.823Z,22.6
2019-06-13T07:46:19.620Z,22.82
2019-06-13T07:47:20.467Z,22.83
2019-06-13T07:48:19.725Z,23
2019-06-13T07:49:19.417Z,23.19
2019-06-13T07:50:32.697Z,23.36
2019-06-13T07:51:20.046Z,23.38
2019-06-13T07:52:20.461Z,23.57
2019-06-13T07:53:19.931Z,23.69
2019-06-13T07:54:19.025Z,23.94
2019-06-13T07:55:32.822Z,24.24
2019-06-13T07:56:19.879Z,24.6
2019-06-13T07:57:19.887Z,24.87
2019-06-13T07:58:21.584Z,25.14
2019-06-13T07:59:20.072Z,25.28
2019-06-13T08:00:20.049Z,25.27
2019-06-13T08:01:21.013Z,25.25
2019-06-13T08:02:19.921Z,25.2
2019-06-13T08:03:19.442Z,25.21
2019-06-13T08:04:36.629Z,25.42
2019-06-13T08:05:20.188Z,25.42
2019-06-13T08:08:19.312Z,25.27
2019-06-13T08:09:20.385Z,25.06
2019-06-13T08:10:23.859Z,24.71
2019-06-13T08:11:33.233Z,24.58
2019-06-13T08:12:19.333Z,24.49
2019-06-13T08:13:21.281Z,24.47
2019-06-13T08:14:19.384Z,24.42
2019-06-13T08:15:20.325Z,24.28
2019-06-13T08:16:39.046Z,24.22
2019-06-13T08:17:20.359Z,24.28
2019-06-13T08:18:21.543Z,24.28
2019-06-13T08:20:33.473Z,24.1
2019-06-13T08:21:33.495Z,23.9
2019-06-13T08:22:22.042Z,23.98
2019-06-13T08:23:25.549Z,23.9
2019-06-13T08:24:20.039Z,23.95
2019-06-13T08:25:20.423Z,23.87
2019-06-13T08:26:33.634Z,23.88
2019-06-13T08:27:33.647Z,23.87
2019-06-13T08:28:21.796Z,23.88
2019-06-13T08:29:21.787Z,24.13
2019-06-13T08:30:22.275Z,24.25
2019-06-13T08:31:20.245Z,24.43
2019-06-13T08:32:20.086Z,24.46
2019-06-13T08:33:22.797Z,24.37
2019-06-13T08:34:20.331Z,24.53
2019-06-13T08:35:22.201Z,24.6
2019-06-13T08:37:22.568Z,24.87
2019-06-13T08:38:20.458Z,25.03
2019-06-13T08:39:33.955Z,25.05
2019-06-13T08:40:22.280Z,25.09
2019-06-13T08:41:29.514Z,25.09
2019-06-13T08:42:34.038Z,24.96
2019-06-13T08:43:22.991Z,25.17
2019-06-13T08:44:20.109Z,25.08
2019-06-13T08:45:22.327Z,25.03
2019-06-13T08:46:20.395Z,25.08
2019-06-13T08:47:22.281Z,25.2
2019-06-13T08:48:22.409Z,25.13
2019-06-13T08:49:23.139Z,25.38
2019-06-13T08:50:21.408Z,25.38
2019-06-13T08:51:22.257Z,25.45
2019-06-13T08:52:22.162Z,25.75
2019-06-13T08:53:34.319Z,26.13
2019-06-13T08:54:22.580Z,26.3
2019-06-13T08:55:21.715Z,26.58
2019-06-13T08:56:23.326Z,26.4
2019-06-13T08:57:21.783Z,26.4
2019-06-13T08:58:23.562Z,26.13
2019-06-13T08:59:22.292Z,25.73
2019-06-13T09:00:22.284Z,25.72
2019-06-13T09:01:22.691Z,25.58
2019-06-13T09:02:22.357Z,25.69
2019-06-13T09:03:22.045Z,25.75
2019-06-13T09:04:22.421Z,25.72
2019-06-13T09:05:23.187Z,25.88
2019-06-13T09:06:26.145Z,26.01
2019-06-13T09:07:22.175Z,26.09
2019-06-13T09:08:32.049Z,26.15
2019-06-13T09:09:22.270Z,26.32
2019-06-13T09:10:22.070Z,26.33
2019-06-13T09:11:44.381Z,25.95
2019-06-13T09:12:21.658Z,25.94
2019-06-13T09:13:22.318Z,25.99
2019-06-13T09:14:34.876Z,25.82
2019-06-13T09:15:21.934Z,25.79
2019-06-13T09:16:21.909Z,25.77
2019-06-13T09:17:22.986Z,26.18
2019-06-13T09:18:22.290Z,26.29
2019-06-13T09:19:21.918Z,26.39
2019-06-13T09:20:21.413Z,26.5
2019-06-13T09:22:23.207Z,26.26
2019-06-13T09:23:22.888Z,26.23
2019-06-13T09:25:35.166Z,25.73
2019-06-13T09:26:21.859Z,25.7
2019-06-13T09:27:22.369Z,25.67
2019-06-13T09:29:22.004Z,25.73
2019-06-13T09:30:35.300Z,25.85
2019-06-13T09:31:22.443Z,26.18
2019-06-13T09:32:22.830Z,26.55
2019-06-13T09:34:21.583Z,26.45
2019-06-13T09:36:23.058Z,26.3
2019-06-13T09:37:22.736Z,26.32
2019-06-13T09:40:54.320Z,26.25
2019-06-13T09:46:32.817Z,26.02
2019-06-13T09:47:34.239Z,26.01
2019-06-13T09:48:32.594Z,25.94
2019-06-13T09:49:33.522Z,26.18
2019-06-13T09:50:55.949Z,26.57
2019-06-13T09:51:33.243Z,27.13
2019-06-13T09:52:32.523Z,28.17
2019-06-13T09:53:33.899Z,29.28
2019-06-13T09:54:57.577Z,30.17
2019-06-13T09:55:32.519Z,30.54
2019-06-13T09:56:32.665Z,31.09
2019-06-13T09:57:32.503Z,31.12
2019-06-13T09:58:33.555Z,31.21
2019-06-13T09:59:45.563Z,31.31
2019-06-13T10:00:34.236Z,31.44
2019-06-13T10:01:33.235Z,31.47
2019-06-13T10:02:32.559Z,30.91
2019-06-13T10:03:33.236Z,30.6
2019-06-13T10:04:32.972Z,30.45
2019-06-13T10:05:31.133Z,30.65
2019-06-13T10:06:31.097Z,30.95
2019-06-13T10:07:31.134Z,31.13
2019-06-13T10:08:50.051Z,30.91
2019-06-13T10:09:45.858Z,30.47
2019-06-13T10:10:32.803Z,30.46
2019-06-13T10:11:45.906Z,30.6
2019-06-13T10:14:51.632Z,30.61
2019-06-13T10:15:05.111Z,30.31
2019-06-13T10:16:21.905Z,30.31
2019-06-13T10:17:05.887Z,30.23
2019-06-13T10:18:05.315Z,30.02
2019-06-13T10:18:15.550Z,26.26
2019-06-13T10:19:05.492Z,29.89
2019-06-13T10:20:29.054Z,30.1
2019-06-13T10:21:04.182Z,29.97
2019-06-13T10:22:16.575Z,29.33
2019-06-13T10:23:04.278Z,29.33
2019-06-13T10:24:04.472Z,29.68
2019-06-13T10:25:15.709Z,29.41
2019-06-13T10:26:02.123Z,28.24
2019-06-13T10:27:02.320Z,28.11
2019-06-13T10:28:10.216Z,27.92
2019-06-13T10:29:02.130Z,28.03
2019-06-13T10:30:14.262Z,28
2019-06-13T10:31:06.054Z,28.09
2019-06-13T10:32:05.786Z,28.09
2019-06-13T10:33:05.620Z,28.21
2019-06-13T10:34:02.521Z,28.25
2019-06-13T10:35:04.629Z,28.04
2019-06-13T10:36:05.580Z,27.66
2019-06-13T10:37:04.573Z,27.66
2019-06-13T10:38:04.479Z,27.65
2019-06-13T10:39:02.682Z,27.81
2019-06-13T10:40:05.384Z,27.59
2019-06-13T10:41:04.298Z,27.24
2019-06-13T10:42:02.754Z,26.89
2019-06-13T10:43:25.306Z,26.81
2019-06-13T10:44:03.956Z,26.92
2019-06-13T10:45:05.144Z,26.94
2019-06-13T10:46:04.402Z,27.09
2019-06-13T10:47:04.864Z,26.84
2019-06-13T10:48:02.671Z,26.55
2019-06-13T10:49:04.829Z,26.32
2019-06-13T10:50:03.856Z,26.35
2019-06-13T10:51:04.694Z,26.52
2019-06-13T10:52:03.031Z,26.4
2019-06-13T10:53:12.183Z,25.82
2019-06-13T10:54:04.576Z,25.8
2019-06-13T10:55:05.210Z,25.91
2019-06-13T10:56:05.083Z,26.18
2019-06-13T10:57:11.821Z,26.15
2019-06-13T10:58:03.979Z,25.97
2019-06-13T10:59:18.007Z,25.9
2019-06-13T11:00:04.778Z,25.57
2019-06-13T11:01:05.794Z,25.54
2019-06-13T11:02:05.752Z,25.87
2019-06-13T11:03:23.487Z,26.07
2019-06-13T11:04:10.580Z,26.3
2019-06-13T11:05:04.676Z,26.29
2019-06-13T11:06:04.579Z,26.37
2019-06-13T11:07:04.874Z,26.33
2019-06-13T11:08:20.195Z,26.48
2019-06-13T11:09:03.497Z,26.63
2019-06-13T11:10:14.444Z,26.44
2019-06-13T11:11:05.442Z,26.55
2019-06-13T11:12:07.360Z,26.33
2019-06-13T11:13:36.759Z,26.3
2019-06-13T11:14:04.441Z,26.26
2019-06-13T11:15:18.336Z,25.92
2019-06-13T11:16:21.802Z,25.73
2019-06-13T11:17:43.319Z,25.47
2019-06-13T11:18:04.548Z,25.35
2019-06-13T11:21:05.404Z,25.38
2019-06-13T11:22:05.271Z,25.33
2019-06-13T11:23:05.788Z,25.38
2019-06-13T11:24:05.174Z,25.42
2019-06-13T11:25:03.690Z,25.38
2019-06-13T11:26:06.912Z,25.38
2019-06-13T11:27:05.402Z,25.33
2019-06-13T11:28:05.090Z,25.5
2019-06-13T11:29:04.575Z,25.64
2019-06-13T11:30:14.788Z,25.64
2019-06-13T11:31:21.366Z,25.75
2019-06-13T11:32:03.897Z,25.69
2019-06-13T11:33:09.141Z,25.7
2019-06-13T11:34:04.808Z,25.88
2019-06-13T11:35:05.701Z,25.92
2019-06-13T11:36:04.818Z,25.88
2019-06-13T11:37:05.499Z,25.73
2019-06-13T11:38:05.198Z,25.91
2019-06-13T11:39:05.264Z,25.92
2019-06-13T11:40:19.543Z,25.99
2019-06-13T11:41:04.365Z,25.95
2019-06-13T11:42:16.952Z,26.01
2019-06-13T11:43:04.933Z,25.9
2019-06-13T11:44:07.541Z,25.87
2019-06-13T11:45:06.497Z,26.02
2019-06-13T11:46:20.411Z,25.99
2019-06-13T11:48:05.039Z,26.05
2019-06-13T11:49:13.643Z,26.18
2019-06-13T11:50:04.614Z,26.21
2019-06-13T11:51:06.896Z,26.3
2019-06-13T11:52:06.606Z,26.36
2019-06-13T11:53:06.595Z,26.29
2019-06-13T11:54:09.575Z,26.01
2019-06-13T11:55:08.641Z,25.87
2019-06-13T11:56:04.928Z,25.79
2019-06-13T11:57:05.552Z,26.06
2019-06-13T11:58:05.073Z,26.39
2019-06-13T11:59:19.510Z,26.28
2019-06-13T12:00:05.238Z,26.18
2019-06-13T12:01:05.335Z,26.05
2019-06-13T12:02:20.835Z,25.97
2019-06-13T12:03:06.030Z,25.91
2019-06-13T12:04:04.987Z,26.18
2019-06-13T12:05:05.208Z,26.23
2019-06-13T12:06:05.662Z,26.06
2019-06-13T12:07:12.359Z,26.13
2019-06-13T12:08:05.373Z,25.91
2019-06-13T12:09:05.141Z,25.79
2019-06-13T12:10:05.496Z,25.8
2019-06-13T12:11:05.210Z,26.02
2019-06-13T12:12:05.210Z,26.23
2019-06-13T12:13:05.417Z,26.36
2019-06-13T12:14:21.168Z,26.62
2019-06-13T12:15:05.280Z,26.69
2019-06-13T12:16:05.300Z,26.81
2019-06-13T12:17:05.370Z,26.73
2019-06-13T12:18:21.139Z,26.66
2019-06-13T12:20:05.607Z,26.75
2019-06-13T12:21:06.178Z,26.82
2019-06-13T12:22:05.455Z,26.7
2019-06-13T12:23:20.677Z,26.28
2019-06-13T12:24:05.524Z,26.13
2019-06-13T12:25:20.792Z,26.23
2019-06-13T12:26:06.214Z,26.29
2019-06-13T12:27:05.590Z,26.5
2019-06-13T12:28:05.376Z,26.7
2019-06-13T12:29:21.601Z,26.72
2019-06-13T12:30:13.692Z,26.72
2019-06-13T12:31:09.379Z,26.6
2019-06-13T12:32:05.517Z,26.58
2019-06-13T12:33:08.044Z,26.76
2019-06-13T12:34:24.172Z,26.58
2019-06-13T12:35:05.824Z,26.67
2019-06-13T12:36:06.055Z,26.97
2019-06-13T12:37:05.609Z,26.94
2019-06-13T12:38:05.889Z,26.92
2019-06-13T12:39:06.104Z,26.81
2019-06-13T12:40:05.970Z,26.52
2019-06-13T12:41:06.056Z,26.1
2019-06-13T12:42:06.002Z,26.13
2019-06-13T12:43:05.769Z,26.33
2019-06-13T12:44:33.784Z,26.51
2019-06-13T12:45:06.109Z,26.63
2019-06-13T12:46:20.759Z,26.57
2019-06-13T12:47:09.325Z,26.67
2019-06-13T12:48:09.088Z,26.88
2019-06-13T12:49:06.177Z,26.89
2019-06-13T12:50:22.513Z,27.09
2019-06-13T12:52:06.345Z,27.17
2019-06-13T12:53:09.537Z,27.31
2019-06-13T12:54:06.309Z,27.32
2019-06-13T12:55:06.341Z,27.31
2019-06-13T12:56:06.369Z,27.41
2019-06-13T12:57:09.122Z,27.54
2019-06-13T12:58:06.416Z,27.72
2019-06-13T12:59:09.377Z,27.51
2019-06-13T13:00:06.477Z,27.39
2019-06-13T13:01:06.497Z,27.32
2019-06-13T13:03:09.306Z,27.43
2019-06-13T13:04:06.680Z,27.43
2019-06-13T13:05:06.633Z,27.36
2019-06-13T13:06:22.413Z,26.99
2019-06-13T13:07:06.658Z,26.97
2019-06-13T13:08:06.687Z,26.69
2019-06-13T13:09:06.728Z,26.7
2019-06-13T13:10:21.474Z,26.66
2019-06-13T13:11:06.791Z,26.77
2019-06-13T13:12:09.877Z,26.97
2019-06-13T13:14:06.847Z,26.89
2019-06-13T13:15:09.620Z,26.82
2019-06-13T13:16:06.899Z,26.55
2019-06-13T13:17:16.689Z,26.45
2019-06-13T13:18:06.451Z,26.45
2019-06-13T13:19:14.498Z,26.32
2019-06-13T13:20:09.000Z,26.43
2019-06-13T13:21:21.701Z,26.43
2019-06-13T13:23:09.481Z,26.48
2019-06-13T13:24:09.307Z,26.62
2019-06-13T13:25:09.928Z,26.58
2019-06-13T13:26:11.621Z,26.69
2019-06-13T13:27:09.788Z,26.75
2019-06-13T13:28:11.089Z,26.85
2019-06-13T13:29:11.339Z,26.8
2019-06-13T13:30:23.370Z,26.69
2019-06-13T13:31:11.834Z,26.75
2019-06-13T13:32:28.853Z,27.06
2019-06-13T13:33:07.362Z,27.13
2019-06-13T13:34:07.894Z,27.1
2019-06-13T13:35:10.577Z,27.06
2019-06-13T13:36:26.636Z,27.14
2019-06-13T13:37:09.431Z,27.09
2019-06-13T13:38:16.253Z,27.1
2019-06-13T13:39:10.034Z,27.12
2019-06-13T13:40:09.592Z,27.4
2019-06-13T13:41:15.352Z,27.31
2019-06-13T13:42:09.516Z,27.29
2019-06-13T13:43:10.476Z,27.27
2019-06-13T13:44:09.496Z,27.12
2019-06-13T13:45:40.016Z,27.07
2019-06-13T13:46:10.150Z,27.04
2019-06-13T13:47:22.403Z,26.92